sensor_id;sensor_type;location;lat;lon;timestamp;temperature;humidity
5930;DHT22;2990;48.746;9.236;2023-05-07T00:00:39;15.10;1.00
5930;DHT22;2990;48.746;9.236;2023-05-07T00:03:13;15.00;1.00
5930;DHT22;2990;48.746;9.236;2023-05-07T00:05:45;15.00;1.00
5930;DHT22;2990;48.746;9.236;2023-05-07T00:08:14;14.90;1.00
5930;DHT22;2990;48.746;9.236;2023-05-07T00:10:49;14.90;1.00
5930;DHT22;2990;48.746;9.236;2023-05-07T00:13:16;14.80;1.00
5930;DHT22;2990;48.746;9.236;2023-05-07T00:15:51;14.90;20.50
5930;DHT22;2990;48.746;9.236;2023-05-07T00:18:22;14.70;57.80
5930;DHT22;2990;48.746;9.236;2023-05-07T00:21:01;14.70;99.90
5930;DHT22;2990;48.746;9.236;2023-05-07T00:23:33;14.70;99.90
5930;DHT22;2990;48.746;9.236;2023-05-07T00:26:04;14.60;99.90
5930;DHT22;2990;48.746;9.236;2023-05-07T00:28:35;14.60;99.90
5930;DHT22;2990;48.746;9.236;2023-05-07T00:31:10;14.70;99.90
5930;DHT22;2990;48.746;9.236;2023-05-07T00:33:44;14.40;99.90
5930;DHT22;2990;48.746;9.236;2023-05-07T00:36:21;14.50;99.90
5930;DHT22;2990;48.746;9.236;2023-05-07T00:38:50;14.50;99.90
5930;DHT22;2990;48.746;9.236;2023-05-07T00:41:19;14.50;1.00
5930;DHT22;2990;48.746;9.236;2023-05-07T00:43:47;14.40;1.00
5930;DHT22;2990;48.746;9.236;2023-05-07T00:46:22;14.40;1.00
5930;DHT22;2990;48.746;9.236;2023-05-07T00:49:24;14.30;1.00
5930;DHT22;2990;48.746;9.236;2023-05-07T00:51:55;14.30;1.00
5930;DHT22;2990;48.746;9.236;2023-05-07T00:54:28;14.40;1.00
5930;DHT22;2990;48.746;9.236;2023-05-07T00:57:10;14.30;1.00
5930;DHT22;2990;48.746;9.236;2023-05-07T00:59:42;14.20;1.00
5930;DHT22;2990;48.746;9.236;2023-05-07T01:02:08;14.20;39.90
5930;DHT22;2990;48.746;9.236;2023-05-07T01:04:37;14.10;99.90
5930;DHT22;2990;48.746;9.236;2023-05-07T01:07:13;14.20;99.90
5930;DHT22;2990;48.746;9.236;2023-05-07T01:09:44;14.20;99.90
5930;DHT22;2990;48.746;9.236;2023-05-07T01:12:21;14.20;99.90
5930;DHT22;2990;48.746;9.236;2023-05-07T01:14:50;14.10;99.90
5930;DHT22;2990;48.746;9.236;2023-05-07T01:17:22;14.10;1.00
5930;DHT22;2990;48.746;9.236;2023-05-07T01:19:51;14.10;1.00
5930;DHT22;2990;48.746;9.236;2023-05-07T01:25:20;14.00;1.00
5930;DHT22;2990;48.746;9.236;2023-05-07T01:28:07;14.00;1.00
5930;DHT22;2990;48.746;9.236;2023-05-07T01:30:37;14.00;66.50
5930;DHT22;2990;48.746;9.236;2023-05-07T01:33:11;14.00;99.90
5930;DHT22;2990;48.746;9.236;2023-05-07T01:35:48;14.00;99.90
5930;DHT22;2990;48.746;9.236;2023-05-07T01:38:21;14.00;8.00
5930;DHT22;2990;48.746;9.236;2023-05-07T01:40:53;14.00;1.00
5930;DHT22;2990;48.746;9.236;2023-05-07T01:43:29;14.00;1.00
5930;DHT22;2990;48.746;9.236;2023-05-07T01:45:57;14.10;1.00
5930;DHT22;2990;48.746;9.236;2023-05-07T01:48:31;14.10;1.00
5930;DHT22;2990;48.746;9.236;2023-05-07T01:51:05;14.30;1.00
5930;DHT22;2990;48.746;9.236;2023-05-07T01:53:38;14.10;1.00
5930;DHT22;2990;48.746;9.236;2023-05-07T01:56:51;14.20;2.40
5930;DHT22;2990;48.746;9.236;2023-05-07T01:59:17;14.00;56.70
5930;DHT22;2990;48.746;9.236;2023-05-07T02:01:54;14.00;99.90
5930;DHT22;2990;48.746;9.236;2023-05-07T02:04:20;14.00;99.90
5930;DHT22;2990;48.746;9.236;2023-05-07T02:06:46;13.90;99.90
5930;DHT22;2990;48.746;9.236;2023-05-07T02:09:17;13.90;99.90
5930;DHT22;2990;48.746;9.236;2023-05-07T02:11:47;13.90;1.00
5930;DHT22;2990;48.746;9.236;2023-05-07T02:14:24;13.80;27.20
5930;DHT22;2990;48.746;9.236;2023-05-07T02:16:55;13.80;31.00
5930;DHT22;2990;48.746;9.236;2023-05-07T02:19:24;13.80;74.70
5930;DHT22;2990;48.746;9.236;2023-05-07T02:21:51;13.80;22.00
5930;DHT22;2990;48.746;9.236;2023-05-07T02:24:25;13.70;33.70
5930;DHT22;2990;48.746;9.236;2023-05-07T02:26:53;13.50;1.00
5930;DHT22;2990;48.746;9.236;2023-05-07T02:29:19;13.60;99.90
5930;DHT22;2990;48.746;9.236;2023-05-07T02:31:53;13.60;99.90
5930;DHT22;2990;48.746;9.236;2023-05-07T02:34:27;13.60;99.90
5930;DHT22;2990;48.746;9.236;2023-05-07T02:36:55;13.60;99.90
5930;DHT22;2990;48.746;9.236;2023-05-07T02:39:29;13.60;99.90
5930;DHT22;2990;48.746;9.236;2023-05-07T02:42:05;13.50;99.90
5930;DHT22;2990;48.746;9.236;2023-05-07T02:44:36;13.50;1.00
5930;DHT22;2990;48.746;9.236;2023-05-07T02:47:21;13.50;1.00
5930;DHT22;2990;48.746;9.236;2023-05-07T02:49:54;13.50;72.80
5930;DHT22;2990;48.746;9.236;2023-05-07T02:52:26;13.50;1.00
5930;DHT22;2990;48.746;9.236;2023-05-07T02:55:01;13.50;1.00
5930;DHT22;2990;48.746;9.236;2023-05-07T02:57:36;13.30;99.90
5930;DHT22;2990;48.746;9.236;2023-05-07T03:00:15;13.30;1.00
5930;DHT22;2990;48.746;9.236;2023-05-07T03:05:49;13.40;99.90
5930;DHT22;2990;48.746;9.236;2023-05-07T03:08:18;13.20;1.00
5930;DHT22;2990;48.746;9.236;2023-05-07T03:11:17;13.20;99.90
5930;DHT22;2990;48.746;9.236;2023-05-07T03:13:49;13.20;99.90
5930;DHT22;2990;48.746;9.236;2023-05-07T03:16:26;13.20;1.00
5930;DHT22;2990;48.746;9.236;2023-05-07T03:18:58;13.00;10.90
5930;DHT22;2990;48.746;9.236;2023-05-07T03:21:31;13.20;1.00
5930;DHT22;2990;48.746;9.236;2023-05-07T03:23:59;13.10;1.00
5930;DHT22;2990;48.746;9.236;2023-05-07T03:26:34;13.30;1.00
5930;DHT22;2990;48.746;9.236;2023-05-07T03:29:05;13.20;1.00
5930;DHT22;2990;48.746;9.236;2023-05-07T03:31:33;13.10;1.00
5930;DHT22;2990;48.746;9.236;2023-05-07T03:34:07;13.30;99.90
5930;DHT22;2990;48.746;9.236;2023-05-07T03:36:36;13.10;99.90
5930;DHT22;2990;48.746;9.236;2023-05-07T03:39:09;13.20;99.90
5930;DHT22;2990;48.746;9.236;2023-05-07T03:41:48;13.00;99.90
5930;DHT22;2990;48.746;9.236;2023-05-07T03:44:14;13.20;99.90
5930;DHT22;2990;48.746;9.236;2023-05-07T03:46:40;13.20;53.10
5930;DHT22;2990;48.746;9.236;2023-05-07T03:49:08;13.30;1.00
5930;DHT22;2990;48.746;9.236;2023-05-07T03:51:39;13.30;1.00
5930;DHT22;2990;48.746;9.236;2023-05-07T03:54:10;13.50;1.00
5930;DHT22;2990;48.746;9.236;2023-05-07T03:56:59;13.30;99.90
5930;DHT22;2990;48.746;9.236;2023-05-07T03:59:28;13.40;99.90
5930;DHT22;2990;48.746;9.236;2023-05-07T04:02:03;13.20;99.90
5930;DHT22;2990;48.746;9.236;2023-05-07T04:04:32;13.10;99.90
5930;DHT22;2990;48.746;9.236;2023-05-07T04:07:04;13.10;1.00
5930;DHT22;2990;48.746;9.236;2023-05-07T04:09:30;13.10;1.00
5930;DHT22;2990;48.746;9.236;2023-05-07T04:12:10;13.10;1.00
5930;DHT22;2990;48.746;9.236;2023-05-07T04:14:43;13.10;99.90
5930;DHT22;2990;48.746;9.236;2023-05-07T04:17:12;13.00;99.90
5930;DHT22;2990;48.746;9.236;2023-05-07T04:22:24;13.00;99.90
5930;DHT22;2990;48.746;9.236;2023-05-07T04:24:58;13.10;99.90
5930;DHT22;2990;48.746;9.236;2023-05-07T04:27:36;13.10;99.90
5930;DHT22;2990;48.746;9.236;2023-05-07T04:30:14;13.10;99.90
5930;DHT22;2990;48.746;9.236;2023-05-07T04:32:51;13.10;99.90
5930;DHT22;2990;48.746;9.236;2023-05-07T04:35:20;13.10;1.00
5930;DHT22;2990;48.746;9.236;2023-05-07T04:37:46;13.20;99.90
5930;DHT22;2990;48.746;9.236;2023-05-07T04:40:18;13.30;22.50
5930;DHT22;2990;48.746;9.236;2023-05-07T04:43:06;13.30;40.90
5930;DHT22;2990;48.746;9.236;2023-05-07T04:45:35;13.40;1.00
5930;DHT22;2990;48.746;9.236;2023-05-07T04:48:23;13.40;1.00
5930;DHT22;2990;48.746;9.236;2023-05-07T04:50:57;13.40;99.90
5930;DHT22;2990;48.746;9.236;2023-05-07T04:53:34;13.50;1.00
5930;DHT22;2990;48.746;9.236;2023-05-07T04:56:03;13.30;99.90
5930;DHT22;2990;48.746;9.236;2023-05-07T04:58:35;13.30;1.00
5930;DHT22;2990;48.746;9.236;2023-05-07T05:01:12;13.10;1.00
5930;DHT22;2990;48.746;9.236;2023-05-07T05:03:38;13.10;1.00
5930;DHT22;2990;48.746;9.236;2023-05-07T05:06:24;13.20;99.90
5930;DHT22;2990;48.746;9.236;2023-05-07T05:08:58;13.00;99.90
5930;DHT22;2990;48.746;9.236;2023-05-07T05:11:32;13.10;1.00
5930;DHT22;2990;48.746;9.236;2023-05-07T05:14:03;13.00;1.00
5930;DHT22;2990;48.746;9.236;2023-05-07T05:16:34;13.10;99.90
5930;DHT22;2990;48.746;9.236;2023-05-07T05:19:10;13.10;1.00
5930;DHT22;2990;48.746;9.236;2023-05-07T05:21:38;13.10;1.00
5930;DHT22;2990;48.746;9.236;2023-05-07T05:24:13;13.10;99.90
5930;DHT22;2990;48.746;9.236;2023-05-07T05:27:02;13.20;99.90
5930;DHT22;2990;48.746;9.236;2023-05-07T05:29:38;13.30;1.00
5930;DHT22;2990;48.746;9.236;2023-05-07T05:32:31;13.70;99.90
5930;DHT22;2990;48.746;9.236;2023-05-07T05:34:59;13.90;1.00
5930;DHT22;2990;48.746;9.236;2023-05-07T05:37:25;13.90;99.90
5930;DHT22;2990;48.746;9.236;2023-05-07T05:39:53;14.10;72.40
5930;DHT22;2990;48.746;9.236;2023-05-07T05:42:28;14.20;1.00
5930;DHT22;2990;48.746;9.236;2023-05-07T05:44:57;14.50;99.90
5930;DHT22;2990;48.746;9.236;2023-05-07T05:47:31;14.70;1.00
5930;DHT22;2990;48.746;9.236;2023-05-07T05:49:57;15.00;1.00
5930;DHT22;2990;48.746;9.236;2023-05-07T05:52:29;15.20;23.90
5930;DHT22;2990;48.746;9.236;2023-05-07T05:55:09;15.20;1.00
5930;DHT22;2990;48.746;9.236;2023-05-07T05:57:47;15.30;99.90
5930;DHT22;2990;48.746;9.236;2023-05-07T06:00:27;15.40;99.90
5930;DHT22;2990;48.746;9.236;2023-05-07T06:02:53;15.50;1.00
5930;DHT22;2990;48.746;9.236;2023-05-07T06:05:19;15.50;1.00
5930;DHT22;2990;48.746;9.236;2023-05-07T06:07:55;15.70;1.00
5930;DHT22;2990;48.746;9.236;2023-05-07T06:10:27;15.70;99.90
5930;DHT22;2990;48.746;9.236;2023-05-07T06:12:55;16.10;99.90
5930;DHT22;2990;48.746;9.236;2023-05-07T06:15:23;16.00;99.90
5930;DHT22;2990;48.746;9.236;2023-05-07T06:18:05;16.20;1.00
5930;DHT22;2990;48.746;9.236;2023-05-07T06:20:33;16.20;1.00
5930;DHT22;2990;48.746;9.236;2023-05-07T06:22:59;16.20;22.60
5930;DHT22;2990;48.746;9.236;2023-05-07T06:25:27;16.40;99.90
5930;DHT22;2990;48.746;9.236;2023-05-07T06:27:56;16.50;99.90
5930;DHT22;2990;48.746;9.236;2023-05-07T06:30:33;16.50;97.70
5930;DHT22;2990;48.746;9.236;2023-05-07T06:33:11;16.70;83.30
5930;DHT22;2990;48.746;9.236;2023-05-07T06:39:07;16.80;1.00
5930;DHT22;2990;48.746;9.236;2023-05-07T06:41:39;16.70;1.00
5930;DHT22;2990;48.746;9.236;2023-05-07T06:44:26;16.40;38.30
5930;DHT22;2990;48.746;9.236;2023-05-07T06:46:58;16.30;99.90
5930;DHT22;2990;48.746;9.236;2023-05-07T06:49:27;16.20;99.90
5930;DHT22;2990;48.746;9.236;2023-05-07T06:51:53;16.20;99.90
5930;DHT22;2990;48.746;9.236;2023-05-07T06:54:43;16.00;1.00
5930;DHT22;2990;48.746;9.236;2023-05-07T06:57:37;16.00;1.00
5930;DHT22;2990;48.746;9.236;2023-05-07T07:00:06;16.10;1.00
5930;DHT22;2990;48.746;9.236;2023-05-07T07:02:36;16.30;1.00
5930;DHT22;2990;48.746;9.236;2023-05-07T07:05:08;16.50;1.00
5930;DHT22;2990;48.746;9.236;2023-05-07T07:07:36;16.70;99.90
5930;DHT22;2990;48.746;9.236;2023-05-07T07:10:02;16.90;99.90
5930;DHT22;2990;48.746;9.236;2023-05-07T07:12:39;17.10;99.90
5930;DHT22;2990;48.746;9.236;2023-05-07T07:15:13;17.30;99.90
5930;DHT22;2990;48.746;9.236;2023-05-07T07:17:43;17.50;1.00
5930;DHT22;2990;48.746;9.236;2023-05-07T07:20:12;17.60;1.00
5930;DHT22;2990;48.746;9.236;2023-05-07T07:22:43;17.60;1.00
5930;DHT22;2990;48.746;9.236;2023-05-07T07:25:20;17.80;1.00
5930;DHT22;2990;48.746;9.236;2023-05-07T07:27:45;17.90;1.00
5930;DHT22;2990;48.746;9.236;2023-05-07T07:30:46;18.00;1.00
5930;DHT22;2990;48.746;9.236;2023-05-07T07:33:17;18.20;1.00
5930;DHT22;2990;48.746;9.236;2023-05-07T07:35:45;18.40;1.00
5930;DHT22;2990;48.746;9.236;2023-05-07T07:38:19;18.40;1.00
5930;DHT22;2990;48.746;9.236;2023-05-07T07:40:53;18.50;1.00
5930;DHT22;2990;48.746;9.236;2023-05-07T07:44:03;18.70;1.00
5930;DHT22;2990;48.746;9.236;2023-05-07T07:50:01;19.40;1.00
5930;DHT22;2990;48.746;9.236;2023-05-07T07:52:29;19.40;1.00
5930;DHT22;2990;48.746;9.236;2023-05-07T07:54:55;19.60;1.00
5930;DHT22;2990;48.746;9.236;2023-05-07T07:57:20;19.60;1.00
5930;DHT22;2990;48.746;9.236;2023-05-07T07:59:46;19.60;99.90
5930;DHT22;2990;48.746;9.236;2023-05-07T08:02:12;19.60;99.90
5930;DHT22;2990;48.746;9.236;2023-05-07T08:04:40;19.80;99.90
5930;DHT22;2990;48.746;9.236;2023-05-07T08:07:17;19.90;99.90
5930;DHT22;2990;48.746;9.236;2023-05-07T08:09:45;20.10;99.90
5930;DHT22;2990;48.746;9.236;2023-05-07T08:12:11;20.30;99.90
5930;DHT22;2990;48.746;9.236;2023-05-07T08:14:40;20.40;99.90
5930;DHT22;2990;48.746;9.236;2023-05-07T08:17:09;20.50;99.90
5930;DHT22;2990;48.746;9.236;2023-05-07T08:19:35;20.70;99.90
5930;DHT22;2990;48.746;9.236;2023-05-07T08:22:03;20.80;99.90
5930;DHT22;2990;48.746;9.236;2023-05-07T08:24:31;20.90;99.90
5930;DHT22;2990;48.746;9.236;2023-05-07T08:26:57;20.90;99.90
5930;DHT22;2990;48.746;9.236;2023-05-07T08:29:25;20.90;99.90
5930;DHT22;2990;48.746;9.236;2023-05-07T08:31:51;21.00;99.90
5930;DHT22;2990;48.746;9.236;2023-05-07T08:34:16;21.20;99.90
5930;DHT22;2990;48.746;9.236;2023-05-07T08:36:45;21.50;99.90
5930;DHT22;2990;48.746;9.236;2023-05-07T08:39:16;21.60;99.90
5930;DHT22;2990;48.746;9.236;2023-05-07T08:41:45;21.90;99.90
5930;DHT22;2990;48.746;9.236;2023-05-07T08:44:14;21.80;99.90
5930;DHT22;2990;48.746;9.236;2023-05-07T08:46:42;21.80;99.90
5930;DHT22;2990;48.746;9.236;2023-05-07T08:49:12;21.90;99.90
5930;DHT22;2990;48.746;9.236;2023-05-07T08:51:41;21.90;99.90
5930;DHT22;2990;48.746;9.236;2023-05-07T08:54:07;21.80;99.90
5930;DHT22;2990;48.746;9.236;2023-05-07T08:56:34;21.80;99.90
5930;DHT22;2990;48.746;9.236;2023-05-07T08:59:00;21.80;99.90
5930;DHT22;2990;48.746;9.236;2023-05-07T09:01:29;21.70;99.90
5930;DHT22;2990;48.746;9.236;2023-05-07T09:03:57;21.90;99.90
5930;DHT22;2990;48.746;9.236;2023-05-07T09:06:23;22.10;99.90
5930;DHT22;2990;48.746;9.236;2023-05-07T09:08:53;22.30;99.90
5930;DHT22;2990;48.746;9.236;2023-05-07T09:11:23;22.40;99.90
5930;DHT22;2990;48.746;9.236;2023-05-07T09:13:55;22.50;99.90
5930;DHT22;2990;48.746;9.236;2023-05-07T09:16:29;22.50;99.90
5930;DHT22;2990;48.746;9.236;2023-05-07T09:18:59;22.90;99.90
5930;DHT22;2990;48.746;9.236;2023-05-07T09:21:28;23.10;99.90
5930;DHT22;2990;48.746;9.236;2023-05-07T09:23:59;23.20;99.90
5930;DHT22;2990;48.746;9.236;2023-05-07T09:26:25;23.10;96.30
5930;DHT22;2990;48.746;9.236;2023-05-07T09:28:51;23.30;96.60
5930;DHT22;2990;48.746;9.236;2023-05-07T09:31:22;23.30;90.90
5930;DHT22;2990;48.746;9.236;2023-05-07T09:33:57;23.40;94.80
5930;DHT22;2990;48.746;9.236;2023-05-07T09:36:32;23.60;87.40
5930;DHT22;2990;48.746;9.236;2023-05-07T09:39:25;23.70;78.10
5930;DHT22;2990;48.746;9.236;2023-05-07T09:41:54;23.70;78.40
5930;DHT22;2990;48.746;9.236;2023-05-07T09:44:20;23.90;79.30
5930;DHT22;2990;48.746;9.236;2023-05-07T09:46:50;24.00;49.20
5930;DHT22;2990;48.746;9.236;2023-05-07T09:49:23;24.00;27.40
5930;DHT22;2990;48.746;9.236;2023-05-07T09:51:51;24.00;33.30
5930;DHT22;2990;48.746;9.236;2023-05-07T09:54:20;24.10;29.50
5930;DHT22;2990;48.746;9.236;2023-05-07T09:56:48;23.90;20.40
5930;DHT22;2990;48.746;9.236;2023-05-07T09:59:17;24.30;26.10
5930;DHT22;2990;48.746;9.236;2023-05-07T10:01:51;24.30;39.10
5930;DHT22;2990;48.746;9.236;2023-05-07T10:04:18;24.40;37.00
5930;DHT22;2990;48.746;9.236;2023-05-07T10:06:51;24.50;18.90
5930;DHT22;2990;48.746;9.236;2023-05-07T10:09:16;24.50;17.70
5930;DHT22;2990;48.746;9.236;2023-05-07T10:11:42;24.60;28.00
5930;DHT22;2990;48.746;9.236;2023-05-07T10:14:09;24.70;29.50
5930;DHT22;2990;48.746;9.236;2023-05-07T10:16:38;24.60;23.20
5930;DHT22;2990;48.746;9.236;2023-05-07T10:19:06;24.80;22.90
5930;DHT22;2990;48.746;9.236;2023-05-07T10:21:39;25.00;15.00
5930;DHT22;2990;48.746;9.236;2023-05-07T10:24:09;25.30;19.40
5930;DHT22;2990;48.746;9.236;2023-05-07T10:26:44;25.10;1.00
5930;DHT22;2990;48.746;9.236;2023-05-07T10:29:36;24.90;1.00
5930;DHT22;2990;48.746;9.236;2023-05-07T10:32:14;24.90;6.40
5930;DHT22;2990;48.746;9.236;2023-05-07T10:34:47;25.10;1.00
5930;DHT22;2990;48.746;9.236;2023-05-07T10:37:17;25.10;1.00
5930;DHT22;2990;48.746;9.236;2023-05-07T10:39:46;25.30;1.00
5930;DHT22;2990;48.746;9.236;2023-05-07T10:42:18;24.90;1.00
5930;DHT22;2990;48.746;9.236;2023-05-07T10:44:46;24.90;1.00
5930;DHT22;2990;48.746;9.236;2023-05-07T10:47:24;24.90;1.00
5930;DHT22;2990;48.746;9.236;2023-05-07T10:52:27;25.40;1.00
5930;DHT22;2990;48.746;9.236;2023-05-07T10:55:31;25.50;1.00
5930;DHT22;2990;48.746;9.236;2023-05-07T10:58:35;25.80;1.00
5930;DHT22;2990;48.746;9.236;2023-05-07T11:01:03;25.90;1.00
5930;DHT22;2990;48.746;9.236;2023-05-07T11:03:30;26.00;1.00
5930;DHT22;2990;48.746;9.236;2023-05-07T11:06:13;26.00;1.00
5930;DHT22;2990;48.746;9.236;2023-05-07T11:09:05;26.20;1.00
5930;DHT22;2990;48.746;9.236;2023-05-07T11:11:50;26.20;1.00
5930;DHT22;2990;48.746;9.236;2023-05-07T11:14:43;26.00;1.00
5930;DHT22;2990;48.746;9.236;2023-05-07T11:17:10;25.70;1.00
5930;DHT22;2990;48.746;9.236;2023-05-07T11:19:53;25.50;1.00
5930;DHT22;2990;48.746;9.236;2023-05-07T11:24:59;25.10;1.00
5930;DHT22;2990;48.746;9.236;2023-05-07T11:27:26;25.20;1.00
5930;DHT22;2990;48.746;9.236;2023-05-07T11:29:56;25.60;1.00
5930;DHT22;2990;48.746;9.236;2023-05-07T11:32:29;26.00;1.00
5930;DHT22;2990;48.746;9.236;2023-05-07T11:35:04;26.30;1.00
5930;DHT22;2990;48.746;9.236;2023-05-07T11:37:32;26.40;1.00
5930;DHT22;2990;48.746;9.236;2023-05-07T11:40:08;26.20;1.00
5930;DHT22;2990;48.746;9.236;2023-05-07T11:42:39;25.80;1.00
5930;DHT22;2990;48.746;9.236;2023-05-07T11:45:26;25.50;1.00
5930;DHT22;2990;48.746;9.236;2023-05-07T11:47:52;25.00;1.00
5930;DHT22;2990;48.746;9.236;2023-05-07T11:50:18;24.90;1.00
5930;DHT22;2990;48.746;9.236;2023-05-07T11:52:50;24.70;1.00
5930;DHT22;2990;48.746;9.236;2023-05-07T11:55:18;24.50;1.00
5930;DHT22;2990;48.746;9.236;2023-05-07T11:57:44;24.10;1.00
5930;DHT22;2990;48.746;9.236;2023-05-07T12:00:10;24.10;1.00
5930;DHT22;2990;48.746;9.236;2023-05-07T12:02:39;23.80;1.00
5930;DHT22;2990;48.746;9.236;2023-05-07T12:05:05;23.60;1.00
5930;DHT22;2990;48.746;9.236;2023-05-07T12:07:33;23.20;1.00
5930;DHT22;2990;48.746;9.236;2023-05-07T12:10:05;23.20;1.00
5930;DHT22;2990;48.746;9.236;2023-05-07T12:17:30;22.80;1.00
5930;DHT22;2990;48.746;9.236;2023-05-07T12:19:56;22.50;1.00
5930;DHT22;2990;48.746;9.236;2023-05-07T12:22:22;22.40;1.00
5930;DHT22;2990;48.746;9.236;2023-05-07T12:24:58;22.30;4.20
5930;DHT22;2990;48.746;9.236;2023-05-07T12:27:24;22.30;8.50
5930;DHT22;2990;48.746;9.236;2023-05-07T12:29:50;22.20;1.00
5930;DHT22;2990;48.746;9.236;2023-05-07T12:32:20;22.10;2.10
5930;DHT22;2990;48.746;9.236;2023-05-07T12:34:49;22.00;4.10
5930;DHT22;2990;48.746;9.236;2023-05-07T12:37:24;21.80;1.00
5930;DHT22;2990;48.746;9.236;2023-05-07T12:40:08;21.70;5.00
5930;DHT22;2990;48.746;9.236;2023-05-07T12:42:37;21.50;5.60
5930;DHT22;2990;48.746;9.236;2023-05-07T12:45:11;21.20;13.70
5930;DHT22;2990;48.746;9.236;2023-05-07T12:47:47;20.90;24.20
5930;DHT22;2990;48.746;9.236;2023-05-07T12:50:16;20.60;43.50
5930;DHT22;2990;48.746;9.236;2023-05-07T12:52:43;21.00;70.30
5930;DHT22;2990;48.746;9.236;2023-05-07T12:55:15;20.50;87.50
5930;DHT22;2990;48.746;9.236;2023-05-07T12:57:43;20.00;99.90
5930;DHT22;2990;48.746;9.236;2023-05-07T13:00:09;19.90;73.40
5930;DHT22;2990;48.746;9.236;2023-05-07T13:02:38;19.50;41.90
5930;DHT22;2990;48.746;9.236;2023-05-07T13:05:04;19.40;34.80
5930;DHT22;2990;48.746;9.236;2023-05-07T13:07:38;18.90;99.90
5930;DHT22;2990;48.746;9.236;2023-05-07T13:10:07;17.90;1.00
5930;DHT22;2990;48.746;9.236;2023-05-07T13:12:32;16.60;1.00
5930;DHT22;2990;48.746;9.236;2023-05-07T13:14:58;15.40;1.00
5930;DHT22;2990;48.746;9.236;2023-05-07T13:17:24;14.70;1.00
5930;DHT22;2990;48.746;9.236;2023-05-07T13:19:57;14.50;1.00
5930;DHT22;2990;48.746;9.236;2023-05-07T13:22:40;14.30;5.90
5930;DHT22;2990;48.746;9.236;2023-05-07T13:31:07;14.00;99.90
5930;DHT22;2990;48.746;9.236;2023-05-07T13:33:39;14.10;99.90
5930;DHT22;2990;48.746;9.236;2023-05-07T13:59:24;13.70;99.90
5930;DHT22;2990;48.746;9.236;2023-05-07T14:02:10;13.80;16.20
5930;DHT22;2990;48.746;9.236;2023-05-07T14:04:50;13.90;99.90
5930;DHT22;2990;48.746;9.236;2023-05-07T14:07:16;14.20;99.90
5930;DHT22;2990;48.746;9.236;2023-05-07T14:09:48;14.30;99.90
5930;DHT22;2990;48.746;9.236;2023-05-07T14:12:13;14.20;99.90
5930;DHT22;2990;48.746;9.236;2023-05-07T14:14:39;14.20;99.90
5930;DHT22;2990;48.746;9.236;2023-05-07T14:17:17;14.00;99.90
5930;DHT22;2990;48.746;9.236;2023-05-07T14:20:02;14.10;99.90
5930;DHT22;2990;48.746;9.236;2023-05-07T14:22:43;13.80;99.90
5930;DHT22;2990;48.746;9.236;2023-05-07T14:25:20;13.90;99.90
5930;DHT22;2990;48.746;9.236;2023-05-07T14:27:54;13.90;99.90
5930;DHT22;2990;48.746;9.236;2023-05-07T14:30:22;13.90;99.90
5930;DHT22;2990;48.746;9.236;2023-05-07T14:32:50;13.90;99.90
5930;DHT22;2990;48.746;9.236;2023-05-07T14:35:27;13.90;99.90
5930;DHT22;2990;48.746;9.236;2023-05-07T14:40:46;13.90;99.90
5930;DHT22;2990;48.746;9.236;2023-05-07T14:43:36;14.00;99.90
5930;DHT22;2990;48.746;9.236;2023-05-07T14:46:02;13.90;99.90
5930;DHT22;2990;48.746;9.236;2023-05-07T14:48:28;13.90;99.90
5930;DHT22;2990;48.746;9.236;2023-05-07T14:50:53;13.90;99.90
5930;DHT22;2990;48.746;9.236;2023-05-07T14:53:19;13.80;99.90
5930;DHT22;2990;48.746;9.236;2023-05-07T14:55:45;13.80;99.90
5930;DHT22;2990;48.746;9.236;2023-05-07T14:58:14;13.90;99.90
5930;DHT22;2990;48.746;9.236;2023-05-07T15:00:49;13.90;99.90
5930;DHT22;2990;48.746;9.236;2023-05-07T15:03:37;14.00;99.90
5930;DHT22;2990;48.746;9.236;2023-05-07T15:06:06;13.80;99.90
5930;DHT22;2990;48.746;9.236;2023-05-07T15:08:50;13.80;99.90
5930;DHT22;2990;48.746;9.236;2023-05-07T15:11:24;14.10;99.90
5930;DHT22;2990;48.746;9.236;2023-05-07T15:13:50;13.90;99.90
5930;DHT22;2990;48.746;9.236;2023-05-07T15:16:22;13.90;99.90
5930;DHT22;2990;48.746;9.236;2023-05-07T15:18:48;13.90;99.90
5930;DHT22;2990;48.746;9.236;2023-05-07T15:21:14;13.90;99.90
5930;DHT22;2990;48.746;9.236;2023-05-07T15:23:40;13.90;99.90
5930;DHT22;2990;48.746;9.236;2023-05-07T15:26:12;14.00;99.90
5930;DHT22;2990;48.746;9.236;2023-05-07T15:29:04;14.00;99.90
5930;DHT22;2990;48.746;9.236;2023-05-07T15:31:53;14.00;99.90
5930;DHT22;2990;48.746;9.236;2023-05-07T15:34:54;14.00;99.90
5930;DHT22;2990;48.746;9.236;2023-05-07T15:37:23;14.10;99.90
5930;DHT22;2990;48.746;9.236;2023-05-07T15:39:51;14.10;99.90
5930;DHT22;2990;48.746;9.236;2023-05-07T15:42:33;14.40;99.90
5930;DHT22;2990;48.746;9.236;2023-05-07T15:45:04;14.50;99.90
5930;DHT22;2990;48.746;9.236;2023-05-07T15:47:32;14.30;99.90
5930;DHT22;2990;48.746;9.236;2023-05-07T15:50:47;14.20;99.90
5930;DHT22;2990;48.746;9.236;2023-05-07T15:53:13;14.30;99.90
5930;DHT22;2990;48.746;9.236;2023-05-07T15:55:41;14.20;99.90
5930;DHT22;2990;48.746;9.236;2023-05-07T16:00:44;14.20;99.90
5930;DHT22;2990;48.746;9.236;2023-05-07T16:03:10;14.30;99.90
5930;DHT22;2990;48.746;9.236;2023-05-07T16:05:39;14.20;99.90
5930;DHT22;2990;48.746;9.236;2023-05-07T16:10:46;14.20;99.90
5930;DHT22;2990;48.746;9.236;2023-05-07T16:13:12;14.20;99.90
5930;DHT22;2990;48.746;9.236;2023-05-07T16:15:38;14.30;99.90
5930;DHT22;2990;48.746;9.236;2023-05-07T16:18:17;14.20;99.90
5930;DHT22;2990;48.746;9.236;2023-05-07T16:20:47;14.30;99.90
5930;DHT22;2990;48.746;9.236;2023-05-07T16:23:17;14.30;99.90
5930;DHT22;2990;48.746;9.236;2023-05-07T16:25:43;14.40;99.90
5930;DHT22;2990;48.746;9.236;2023-05-07T16:28:13;14.40;99.90
5930;DHT22;2990;48.746;9.236;2023-05-07T16:30:49;14.50;99.90
5930;DHT22;2990;48.746;9.236;2023-05-07T16:33:17;14.60;99.90
5930;DHT22;2990;48.746;9.236;2023-05-07T16:35:54;14.50;99.90
5930;DHT22;2990;48.746;9.236;2023-05-07T16:38:19;14.70;99.90
5930;DHT22;2990;48.746;9.236;2023-05-07T16:40:48;14.60;99.90
5930;DHT22;2990;48.746;9.236;2023-05-07T16:43:26;14.60;99.90
5930;DHT22;2990;48.746;9.236;2023-05-07T16:45:52;14.50;99.90
5930;DHT22;2990;48.746;9.236;2023-05-07T16:48:17;14.60;99.90
5930;DHT22;2990;48.746;9.236;2023-05-07T16:50:43;14.60;99.90
5930;DHT22;2990;48.746;9.236;2023-05-07T16:53:11;14.60;99.90
5930;DHT22;2990;48.746;9.236;2023-05-07T16:55:37;14.60;99.90
5930;DHT22;2990;48.746;9.236;2023-05-07T16:58:06;14.80;99.90
5930;DHT22;2990;48.746;9.236;2023-05-07T17:00:45;14.50;99.90
5930;DHT22;2990;48.746;9.236;2023-05-07T17:03:14;14.50;99.90
5930;DHT22;2990;48.746;9.236;2023-05-07T17:08:18;14.60;99.90
5930;DHT22;2990;48.746;9.236;2023-05-07T17:10:47;14.50;99.90
5930;DHT22;2990;48.746;9.236;2023-05-07T17:13:21;14.50;99.90
5930;DHT22;2990;48.746;9.236;2023-05-07T17:15:56;14.50;99.90
5930;DHT22;2990;48.746;9.236;2023-05-07T17:18:22;14.50;99.90
5930;DHT22;2990;48.746;9.236;2023-05-07T17:20:53;14.60;99.90
5930;DHT22;2990;48.746;9.236;2023-05-07T17:23:19;14.50;99.90
5930;DHT22;2990;48.746;9.236;2023-05-07T17:25:44;14.50;99.90
5930;DHT22;2990;48.746;9.236;2023-05-07T17:28:18;14.50;99.90
5930;DHT22;2990;48.746;9.236;2023-05-07T17:30:55;14.50;99.90
5930;DHT22;2990;48.746;9.236;2023-05-07T17:33:44;14.50;99.90
5930;DHT22;2990;48.746;9.236;2023-05-07T17:36:12;14.40;99.90
5930;DHT22;2990;48.746;9.236;2023-05-07T17:38:38;14.50;99.90
5930;DHT22;2990;48.746;9.236;2023-05-07T17:41:12;14.60;99.90
5930;DHT22;2990;48.746;9.236;2023-05-07T17:43:38;14.60;99.90
5930;DHT22;2990;48.746;9.236;2023-05-07T17:46:11;14.50;99.90